Impacts TAF Board INFO
FOR SITUATIONAL AWARENESS. NOT TO BE USED FOR FLIGHT PLANNING PURPOSES.
IDs:

KPIT - Pittsburgh Intl, PA, US

Issued at 1457 UTC 19 Nov 2017
Updated at 1609 UTC 19 Nov 2017
Potential Impact None Slight Moderate High
Time<<20/05Z 20/06Z 20/07Z 20/08Z 20/09Z 20/10Z 20/11Z 20/12Z 20/13Z 20/14Z 20/15Z 20/16Z 20/17Z>>
Type PRVL PRVL PRVL PRVL PRVL PRVL PRVL PRVL PRVL PRVL PRVL PRVL PRVL
VIS >6 >6 >6 >6 >6 >6 >6 >6 >6 >6 >6 >6 >6
CIG 25 35 35 35 35 35 35 -- -- -- -- -- --
Cover OVC BKN BKN BKN BKN BKN BKN SCT SCT SCT SCT SCT SCT
FltCat MVFR VFR VFR VFR VFR VFR VFR VFR VFR VFR VFR VFR VFR
WX -- -- -- -- -- -- -- -- -- -- -- -- --
WDir 280 260 260 260 260 260 260 240 240 240 240 240 240
WSpd 12 12 12 12 12 12 12 12 12 12 12 12 12
WGst 22 -- -- -- -- -- -- -- -- -- -- -- --

Raw TAF
KPIT 191457Z 1915/2018 29015G25KT P6SM OVC025
  FM191900 29015G25KT P6SM -SHSN OVC020
  FM200000 28012G22KT P6SM OVC025
  FM200600 26012KT P6SM BKN035
  FM201200 24012KT P6SM SCT100


METAR Board
Radar Display
Forecast Discussion

FOR SITUATIONAL AWARENESS. NOT TO BE USED FOR FLIGHT PLANNING PURPOSES.